sensor_id;sensor_type;location;lat;lon;timestamp;P1;durP1;ratioP1;P2;durP2;ratioP2
74634;SDS011;63140;56.306;43.984;2022-10-01T00:00:24;27.85;;;15.48;;
74634;SDS011;63140;56.306;43.984;2022-10-01T00:02:53;31.83;;;17.58;;
74634;SDS011;63140;56.306;43.984;2022-10-01T00:05:19;27.80;;;16.07;;
74634;SDS011;63140;56.306;43.984;2022-10-01T00:07:46;30.55;;;16.65;;
74634;SDS011;63140;56.306;43.984;2022-10-01T00:10:12;30.33;;;17.63;;
74634;SDS011;63140;56.306;43.984;2022-10-01T00:12:42;28.50;;;16.23;;
74634;SDS011;63140;56.306;43.984;2022-10-01T00:15:11;28.90;;;17.27;;
74634;SDS011;63140;56.306;43.984;2022-10-01T00:17:39;30.00;;;15.70;;
74634;SDS011;63140;56.306;43.984;2022-10-01T00:20:05;24.77;;;15.07;;
74634;SDS011;63140;56.306;43.984;2022-10-01T00:22:32;26.90;;;14.60;;
74634;SDS011;63140;56.306;43.984;2022-10-01T00:25:00;22.55;;;13.35;;
74634;SDS011;63140;56.306;43.984;2022-10-01T00:27:28;24.48;;;13.50;;
74634;SDS011;63140;56.306;43.984;2022-10-01T00:29:55;23.05;;;13.38;;
74634;SDS011;63140;56.306;43.984;2022-10-01T00:32:22;23.63;;;13.20;;
74634;SDS011;63140;56.306;43.984;2022-10-01T00:34:49;23.87;;;12.93;;
74634;SDS011;63140;56.306;43.984;2022-10-01T00:37:15;25.52;;;14.40;;
74634;SDS011;63140;56.306;43.984;2022-10-01T00:39:42;28.17;;;16.02;;
74634;SDS011;63140;56.306;43.984;2022-10-01T00:42:15;25.65;;;14.55;;
74634;SDS011;63140;56.306;43.984;2022-10-01T00:44:47;26.70;;;14.52;;
74634;SDS011;63140;56.306;43.984;2022-10-01T00:50:00;26.33;;;13.83;;
74634;SDS011;63140;56.306;43.984;2022-10-01T00:52:32;22.83;;;13.00;;
74634;SDS011;63140;56.306;43.984;2022-10-01T00:55:08;23.35;;;12.98;;
74634;SDS011;63140;56.306;43.984;2022-10-01T00:57:37;22.52;;;13.32;;
74634;SDS011;63140;56.306;43.984;2022-10-01T01:00:06;22.75;;;12.68;;
74634;SDS011;63140;56.306;43.984;2022-10-01T01:02:35;22.00;;;12.35;;
74634;SDS011;63140;56.306;43.984;2022-10-01T01:05:01;22.83;;;12.23;;
74634;SDS011;63140;56.306;43.984;2022-10-01T01:07:29;22.98;;;12.35;;
74634;SDS011;63140;56.306;43.984;2022-10-01T01:09:57;21.63;;;13.00;;
74634;SDS011;63140;56.306;43.984;2022-10-01T01:18:07;23.35;;;13.43;;
74634;SDS011;63140;56.306;43.984;2022-10-01T01:29:15;27.20;;;15.43;;
74634;SDS011;63140;56.306;43.984;2022-10-01T01:31:56;28.65;;;16.15;;
74634;SDS011;63140;56.306;43.984;2022-10-01T01:34:27;28.77;;;17.63;;
74634;SDS011;63140;56.306;43.984;2022-10-01T01:37:00;27.23;;;15.83;;
74634;SDS011;63140;56.306;43.984;2022-10-01T01:39:37;29.80;;;16.80;;
74634;SDS011;63140;56.306;43.984;2022-10-01T01:42:09;28.23;;;15.95;;
74634;SDS011;63140;56.306;43.984;2022-10-01T01:44:40;27.70;;;16.17;;
74634;SDS011;63140;56.306;43.984;2022-10-01T01:47:09;26.05;;;15.73;;
74634;SDS011;63140;56.306;43.984;2022-10-01T01:49:37;26.02;;;15.65;;
74634;SDS011;63140;56.306;43.984;2022-10-01T01:52:08;25.27;;;14.13;;
74634;SDS011;63140;56.306;43.984;2022-10-01T01:54:39;24.17;;;14.67;;
74634;SDS011;63140;56.306;43.984;2022-10-01T01:57:09;23.75;;;14.68;;
74634;SDS011;63140;56.306;43.984;2022-10-01T01:59:37;30.08;;;15.77;;
74634;SDS011;63140;56.306;43.984;2022-10-01T02:02:04;23.38;;;14.02;;
74634;SDS011;63140;56.306;43.984;2022-10-01T02:04:36;23.80;;;15.27;;
74634;SDS011;63140;56.306;43.984;2022-10-01T02:09:59;25.07;;;15.07;;
74634;SDS011;63140;56.306;43.984;2022-10-01T02:15:25;28.38;;;15.20;;
74634;SDS011;63140;56.306;43.984;2022-10-01T02:18:25;29.55;;;18.30;;
74634;SDS011;63140;56.306;43.984;2022-10-01T02:21:18;32.35;;;17.83;;
74634;SDS011;63140;56.306;43.984;2022-10-01T02:23:55;31.67;;;17.30;;
74634;SDS011;63140;56.306;43.984;2022-10-01T02:26:55;33.37;;;17.97;;
74634;SDS011;63140;56.306;43.984;2022-10-01T02:29:23;33.60;;;18.20;;
74634;SDS011;63140;56.306;43.984;2022-10-01T02:31:49;33.53;;;18.77;;
74634;SDS011;63140;56.306;43.984;2022-10-01T02:34:19;36.38;;;17.73;;
74634;SDS011;63140;56.306;43.984;2022-10-01T02:36:49;34.65;;;18.17;;
74634;SDS011;63140;56.306;43.984;2022-10-01T02:39:16;32.15;;;17.05;;
74634;SDS011;63140;56.306;43.984;2022-10-01T02:41:46;31.92;;;17.30;;
74634;SDS011;63140;56.306;43.984;2022-10-01T02:44:18;36.67;;;15.97;;
74634;SDS011;63140;56.306;43.984;2022-10-01T02:46:53;29.83;;;15.20;;
74634;SDS011;63140;56.306;43.984;2022-10-01T02:49:45;28.90;;;15.13;;
74634;SDS011;63140;56.306;43.984;2022-10-01T02:52:20;24.33;;;13.23;;
74634;SDS011;63140;56.306;43.984;2022-10-01T02:55:09;26.38;;;13.48;;
74634;SDS011;63140;56.306;43.984;2022-10-01T02:57:39;26.77;;;13.63;;
74634;SDS011;63140;56.306;43.984;2022-10-01T03:00:10;24.77;;;13.77;;
74634;SDS011;63140;56.306;43.984;2022-10-01T03:02:39;25.80;;;13.70;;
74634;SDS011;63140;56.306;43.984;2022-10-01T03:05:05;23.77;;;13.82;;
74634;SDS011;63140;56.306;43.984;2022-10-01T03:07:32;24.35;;;14.57;;
74634;SDS011;63140;56.306;43.984;2022-10-01T03:10:03;23.30;;;13.00;;
74634;SDS011;63140;56.306;43.984;2022-10-01T03:12:29;24.33;;;14.60;;
74634;SDS011;63140;56.306;43.984;2022-10-01T03:14:55;26.67;;;15.02;;
74634;SDS011;63140;56.306;43.984;2022-10-01T03:17:21;25.33;;;14.70;;
74634;SDS011;63140;56.306;43.984;2022-10-01T03:19:47;24.98;;;15.02;;
74634;SDS011;63140;56.306;43.984;2022-10-01T03:22:13;25.73;;;14.30;;
74634;SDS011;63140;56.306;43.984;2022-10-01T03:24:42;25.65;;;15.35;;
74634;SDS011;63140;56.306;43.984;2022-10-01T03:27:08;25.13;;;15.32;;
74634;SDS011;63140;56.306;43.984;2022-10-01T03:29:34;29.40;;;16.05;;
74634;SDS011;63140;56.306;43.984;2022-10-01T03:32:00;30.10;;;17.03;;
74634;SDS011;63140;56.306;43.984;2022-10-01T03:34:26;29.23;;;16.33;;
74634;SDS011;63140;56.306;43.984;2022-10-01T03:36:52;29.08;;;17.50;;
74634;SDS011;63140;56.306;43.984;2022-10-01T03:39:17;27.63;;;17.02;;
74634;SDS011;63140;56.306;43.984;2022-10-01T03:41:43;28.27;;;16.50;;
74634;SDS011;63140;56.306;43.984;2022-10-01T03:44:10;29.52;;;17.95;;
74634;SDS011;63140;56.306;43.984;2022-10-01T03:46:36;32.25;;;18.48;;
74634;SDS011;63140;56.306;43.984;2022-10-01T03:49:02;32.47;;;17.10;;
74634;SDS011;63140;56.306;43.984;2022-10-01T03:51:28;29.73;;;17.45;;
74634;SDS011;63140;56.306;43.984;2022-10-01T03:53:55;28.30;;;16.77;;
74634;SDS011;63140;56.306;43.984;2022-10-01T03:56:22;30.50;;;17.63;;
74634;SDS011;63140;56.306;43.984;2022-10-01T03:58:49;30.85;;;16.80;;
74634;SDS011;63140;56.306;43.984;2022-10-01T04:01:15;31.45;;;17.30;;
74634;SDS011;63140;56.306;43.984;2022-10-01T04:03:42;29.35;;;17.05;;
74634;SDS011;63140;56.306;43.984;2022-10-01T04:06:08;30.25;;;17.73;;
74634;SDS011;63140;56.306;43.984;2022-10-01T04:08:35;27.75;;;17.00;;
74634;SDS011;63140;56.306;43.984;2022-10-01T04:11:03;29.20;;;16.73;;
74634;SDS011;63140;56.306;43.984;2022-10-01T04:13:30;29.97;;;16.97;;
74634;SDS011;63140;56.306;43.984;2022-10-01T04:15:56;29.40;;;17.97;;
74634;SDS011;63140;56.306;43.984;2022-10-01T04:18:22;32.40;;;17.23;;
74634;SDS011;63140;56.306;43.984;2022-10-01T04:20:48;33.38;;;17.73;;
74634;SDS011;63140;56.306;43.984;2022-10-01T04:23:14;31.02;;;18.88;;
74634;SDS011;63140;56.306;43.984;2022-10-01T04:25:40;28.73;;;17.00;;
74634;SDS011;63140;56.306;43.984;2022-10-01T04:28:06;36.42;;;19.17;;
74634;SDS011;63140;56.306;43.984;2022-10-01T04:30:35;34.75;;;19.15;;
74634;SDS011;63140;56.306;43.984;2022-10-01T04:33:04;34.88;;;18.58;;
74634;SDS011;63140;56.306;43.984;2022-10-01T04:35:31;31.85;;;19.25;;
74634;SDS011;63140;56.306;43.984;2022-10-01T04:38:00;34.40;;;18.77;;
74634;SDS011;63140;56.306;43.984;2022-10-01T04:40:36;32.95;;;18.20;;
74634;SDS011;63140;56.306;43.984;2022-10-01T04:43:03;32.72;;;19.20;;
74634;SDS011;63140;56.306;43.984;2022-10-01T04:45:30;32.03;;;19.15;;
74634;SDS011;63140;56.306;43.984;2022-10-01T04:47:56;35.25;;;18.92;;
74634;SDS011;63140;56.306;43.984;2022-10-01T04:50:24;35.30;;;19.17;;
74634;SDS011;63140;56.306;43.984;2022-10-01T04:52:51;35.43;;;18.27;;
74634;SDS011;63140;56.306;43.984;2022-10-01T04:55:18;31.20;;;17.65;;
74634;SDS011;63140;56.306;43.984;2022-10-01T04:57:45;35.65;;;17.88;;
74634;SDS011;63140;56.306;43.984;2022-10-01T05:00:13;27.85;;;16.98;;
74634;SDS011;63140;56.306;43.984;2022-10-01T05:02:45;27.05;;;15.23;;
74634;SDS011;63140;56.306;43.984;2022-10-01T05:05:13;25.55;;;14.27;;
74634;SDS011;63140;56.306;43.984;2022-10-01T05:07:40;26.73;;;15.00;;
74634;SDS011;63140;56.306;43.984;2022-10-01T05:10:07;27.47;;;14.73;;
74634;SDS011;63140;56.306;43.984;2022-10-01T05:12:37;29.30;;;16.73;;
74634;SDS011;63140;56.306;43.984;2022-10-01T05:15:03;30.00;;;15.80;;
74634;SDS011;63140;56.306;43.984;2022-10-01T05:17:29;25.70;;;15.40;;
74634;SDS011;63140;56.306;43.984;2022-10-01T05:19:57;29.20;;;15.80;;
74634;SDS011;63140;56.306;43.984;2022-10-01T05:22:23;26.17;;;14.10;;
74634;SDS011;63140;56.306;43.984;2022-10-01T05:24:49;23.07;;;14.80;;
74634;SDS011;63140;56.306;43.984;2022-10-01T05:27:16;26.90;;;14.73;;
74634;SDS011;63140;56.306;43.984;2022-10-01T05:29:42;33.03;;;14.90;;
74634;SDS011;63140;56.306;43.984;2022-10-01T05:32:08;27.98;;;14.75;;
74634;SDS011;63140;56.306;43.984;2022-10-01T05:34:36;28.25;;;15.48;;
74634;SDS011;63140;56.306;43.984;2022-10-01T05:37:22;28.90;;;15.23;;
74634;SDS011;63140;56.306;43.984;2022-10-01T05:39:48;29.77;;;15.82;;
74634;SDS011;63140;56.306;43.984;2022-10-01T05:42:14;33.28;;;17.08;;
74634;SDS011;63140;56.306;43.984;2022-10-01T05:44:40;31.45;;;16.38;;
74634;SDS011;63140;56.306;43.984;2022-10-01T05:47:11;29.50;;;17.42;;
74634;SDS011;63140;56.306;43.984;2022-10-01T05:49:38;28.20;;;16.57;;
74634;SDS011;63140;56.306;43.984;2022-10-01T05:52:09;34.47;;;17.57;;
74634;SDS011;63140;56.306;43.984;2022-10-01T05:54:35;34.85;;;17.92;;
74634;SDS011;63140;56.306;43.984;2022-10-01T05:57:01;35.78;;;17.58;;
74634;SDS011;63140;56.306;43.984;2022-10-01T05:59:28;34.65;;;19.33;;
74634;SDS011;63140;56.306;43.984;2022-10-01T06:01:54;37.93;;;22.80;;
74634;SDS011;63140;56.306;43.984;2022-10-01T06:04:20;41.38;;;20.95;;
74634;SDS011;63140;56.306;43.984;2022-10-01T06:06:45;41.08;;;23.40;;
74634;SDS011;63140;56.306;43.984;2022-10-01T06:09:11;36.27;;;20.03;;
74634;SDS011;63140;56.306;43.984;2022-10-01T06:11:38;34.90;;;19.10;;
74634;SDS011;63140;56.306;43.984;2022-10-01T06:14:04;34.20;;;19.67;;
74634;SDS011;63140;56.306;43.984;2022-10-01T06:16:30;36.55;;;20.00;;
74634;SDS011;63140;56.306;43.984;2022-10-01T06:18:56;37.78;;;20.50;;
74634;SDS011;63140;56.306;43.984;2022-10-01T06:21:23;37.27;;;20.60;;
74634;SDS011;63140;56.306;43.984;2022-10-01T06:23:49;33.05;;;18.90;;
74634;SDS011;63140;56.306;43.984;2022-10-01T06:26:16;42.47;;;20.77;;
74634;SDS011;63140;56.306;43.984;2022-10-01T06:28:42;36.50;;;19.90;;
74634;SDS011;63140;56.306;43.984;2022-10-01T06:31:08;36.47;;;19.58;;
74634;SDS011;63140;56.306;43.984;2022-10-01T06:33:34;38.67;;;20.23;;
74634;SDS011;63140;56.306;43.984;2022-10-01T06:36:02;38.30;;;20.88;;
74634;SDS011;63140;56.306;43.984;2022-10-01T06:38:28;34.30;;;18.23;;
74634;SDS011;63140;56.306;43.984;2022-10-01T06:40:55;33.20;;;18.38;;
74634;SDS011;63140;56.306;43.984;2022-10-01T06:43:23;30.60;;;15.98;;
74634;SDS011;63140;56.306;43.984;2022-10-01T06:45:50;37.03;;;17.50;;
74634;SDS011;63140;56.306;43.984;2022-10-01T06:48:17;34.13;;;17.05;;
74634;SDS011;63140;56.306;43.984;2022-10-01T06:50:44;28.53;;;15.63;;
74634;SDS011;63140;56.306;43.984;2022-10-01T06:53:12;33.30;;;16.50;;
74634;SDS011;63140;56.306;43.984;2022-10-01T06:55:39;30.30;;;16.40;;
74634;SDS011;63140;56.306;43.984;2022-10-01T06:58:13;33.05;;;15.27;;
74634;SDS011;63140;56.306;43.984;2022-10-01T07:00:40;30.10;;;16.58;;
74634;SDS011;63140;56.306;43.984;2022-10-01T07:03:08;33.85;;;16.92;;
74634;SDS011;63140;56.306;43.984;2022-10-01T07:05:42;32.27;;;15.47;;
74634;SDS011;63140;56.306;43.984;2022-10-01T07:08:09;30.57;;;15.37;;
74634;SDS011;63140;56.306;43.984;2022-10-01T07:10:35;34.03;;;15.30;;
74634;SDS011;63140;56.306;43.984;2022-10-01T07:13:08;28.02;;;15.88;;
74634;SDS011;63140;56.306;43.984;2022-10-01T07:15:39;30.27;;;14.88;;
74634;SDS011;63140;56.306;43.984;2022-10-01T07:18:05;28.70;;;15.65;;
74634;SDS011;63140;56.306;43.984;2022-10-01T07:20:33;27.57;;;14.20;;
74634;SDS011;63140;56.306;43.984;2022-10-01T07:23:04;32.10;;;16.07;;
74634;SDS011;63140;56.306;43.984;2022-10-01T07:25:31;32.47;;;15.55;;
74634;SDS011;63140;56.306;43.984;2022-10-01T07:27:58;30.40;;;15.50;;
74634;SDS011;63140;56.306;43.984;2022-10-01T07:30:26;33.03;;;15.40;;
74634;SDS011;63140;56.306;43.984;2022-10-01T07:32:52;30.45;;;16.08;;
74634;SDS011;63140;56.306;43.984;2022-10-01T07:35:18;33.60;;;16.23;;
74634;SDS011;63140;56.306;43.984;2022-10-01T07:37:46;29.20;;;15.23;;
74634;SDS011;63140;56.306;43.984;2022-10-01T07:40:12;27.03;;;14.93;;
74634;SDS011;63140;56.306;43.984;2022-10-01T07:42:40;27.55;;;14.77;;
74634;SDS011;63140;56.306;43.984;2022-10-01T07:45:07;27.65;;;14.85;;
74634;SDS011;63140;56.306;43.984;2022-10-01T07:47:33;27.50;;;14.10;;
74634;SDS011;63140;56.306;43.984;2022-10-01T07:49:59;28.38;;;13.75;;
74634;SDS011;63140;56.306;43.984;2022-10-01T07:52:25;25.30;;;14.07;;
74634;SDS011;63140;56.306;43.984;2022-10-01T07:54:51;24.73;;;13.85;;
74634;SDS011;63140;56.306;43.984;2022-10-01T07:57:17;22.77;;;13.95;;
74634;SDS011;63140;56.306;43.984;2022-10-01T07:59:43;26.07;;;13.87;;
74634;SDS011;63140;56.306;43.984;2022-10-01T08:02:11;24.45;;;14.57;;
74634;SDS011;63140;56.306;43.984;2022-10-01T08:04:41;24.65;;;13.38;;
74634;SDS011;63140;56.306;43.984;2022-10-01T08:07:26;26.45;;;13.88;;
74634;SDS011;63140;56.306;43.984;2022-10-01T08:09:52;23.40;;;13.27;;
74634;SDS011;63140;56.306;43.984;2022-10-01T08:12:17;24.58;;;13.82;;
74634;SDS011;63140;56.306;43.984;2022-10-01T08:14:44;23.00;;;13.60;;
74634;SDS011;63140;56.306;43.984;2022-10-01T08:17:12;30.05;;;14.60;;
74634;SDS011;63140;56.306;43.984;2022-10-01T08:19:38;25.27;;;14.27;;
74634;SDS011;63140;56.306;43.984;2022-10-01T08:22:04;27.67;;;14.30;;
74634;SDS011;63140;56.306;43.984;2022-10-01T08:24:31;26.45;;;14.32;;
74634;SDS011;63140;56.306;43.984;2022-10-01T08:27:00;24.42;;;14.77;;
74634;SDS011;63140;56.306;43.984;2022-10-01T08:29:26;28.65;;;14.80;;
74634;SDS011;63140;56.306;43.984;2022-10-01T08:31:52;24.57;;;14.47;;
74634;SDS011;63140;56.306;43.984;2022-10-01T08:34:18;24.98;;;14.52;;
74634;SDS011;63140;56.306;43.984;2022-10-01T08:36:43;27.58;;;14.98;;
74634;SDS011;63140;56.306;43.984;2022-10-01T08:39:10;25.15;;;14.95;;
74634;SDS011;63140;56.306;43.984;2022-10-01T08:41:41;27.47;;;13.17;;
74634;SDS011;63140;56.306;43.984;2022-10-01T08:44:35;22.67;;;13.37;;
74634;SDS011;63140;56.306;43.984;2022-10-01T08:47:15;21.85;;;13.10;;
74634;SDS011;63140;56.306;43.984;2022-10-01T08:49:52;22.33;;;13.02;;
74634;SDS011;63140;56.306;43.984;2022-10-01T08:52:32;23.95;;;13.32;;
74634;SDS011;63140;56.306;43.984;2022-10-01T08:55:14;19.33;;;12.38;;
74634;SDS011;63140;56.306;43.984;2022-10-01T08:57:48;23.27;;;13.38;;
74634;SDS011;63140;56.306;43.984;2022-10-01T09:00:19;23.10;;;13.32;;
74634;SDS011;63140;56.306;43.984;2022-10-01T09:02:46;21.30;;;13.57;;
74634;SDS011;63140;56.306;43.984;2022-10-01T09:07:48;23.67;;;14.07;;
74634;SDS011;63140;56.306;43.984;2022-10-01T09:22:33;20.95;;;12.60;;
74634;SDS011;63140;56.306;43.984;2022-10-01T09:25:13;24.17;;;12.75;;
74634;SDS011;63140;56.306;43.984;2022-10-01T09:27:45;21.43;;;12.63;;
74634;SDS011;63140;56.306;43.984;2022-10-01T09:32:48;23.13;;;13.50;;
74634;SDS011;63140;56.306;43.984;2022-10-01T09:38:10;19.77;;;12.73;;
74634;SDS011;63140;56.306;43.984;2022-10-01T09:43:10;25.20;;;13.52;;
74634;SDS011;63140;56.306;43.984;2022-10-01T09:45:37;20.47;;;12.20;;
74634;SDS011;63140;56.306;43.984;2022-10-01T09:48:12;21.93;;;12.77;;
74634;SDS011;63140;56.306;43.984;2022-10-01T09:50:45;22.08;;;12.45;;
74634;SDS011;63140;56.306;43.984;2022-10-01T09:53:29;23.92;;;13.80;;
74634;SDS011;63140;56.306;43.984;2022-10-01T09:56:04;25.23;;;14.93;;
74634;SDS011;63140;56.306;43.984;2022-10-01T09:58:37;21.60;;;13.60;;
74634;SDS011;63140;56.306;43.984;2022-10-01T10:01:16;23.02;;;12.93;;
74634;SDS011;63140;56.306;43.984;2022-10-01T10:03:53;22.67;;;12.25;;
74634;SDS011;63140;56.306;43.984;2022-10-01T10:06:21;20.60;;;12.13;;
74634;SDS011;63140;56.306;43.984;2022-10-01T10:08:51;28.60;;;14.40;;
74634;SDS011;63140;56.306;43.984;2022-10-01T10:11:20;23.42;;;13.20;;
74634;SDS011;63140;56.306;43.984;2022-10-01T10:13:53;24.48;;;13.48;;
74634;SDS011;63140;56.306;43.984;2022-10-01T10:16:25;24.55;;;14.40;;
74634;SDS011;63140;56.306;43.984;2022-10-01T10:18:59;22.77;;;13.68;;
74634;SDS011;63140;56.306;43.984;2022-10-01T10:21:29;25.42;;;12.73;;
74634;SDS011;63140;56.306;43.984;2022-10-01T10:24:06;23.00;;;12.93;;
74634;SDS011;63140;56.306;43.984;2022-10-01T10:26:53;26.47;;;13.53;;
74634;SDS011;63140;56.306;43.984;2022-10-01T10:29:24;22.17;;;13.18;;
74634;SDS011;63140;56.306;43.984;2022-10-01T10:32:12;26.30;;;13.25;;
74634;SDS011;63140;56.306;43.984;2022-10-01T10:34:52;25.42;;;14.73;;
74634;SDS011;63140;56.306;43.984;2022-10-01T10:37:31;30.27;;;17.42;;
74634;SDS011;63140;56.306;43.984;2022-10-01T10:40:01;33.10;;;19.17;;
74634;SDS011;63140;56.306;43.984;2022-10-01T10:42:30;34.70;;;21.73;;
74634;SDS011;63140;56.306;43.984;2022-10-01T10:44:59;35.17;;;21.13;;
74634;SDS011;63140;56.306;43.984;2022-10-01T10:47:30;36.10;;;22.08;;
74634;SDS011;63140;56.306;43.984;2022-10-01T10:50:02;35.40;;;21.90;;
74634;SDS011;63140;56.306;43.984;2022-10-01T10:52:34;30.55;;;19.95;;
74634;SDS011;63140;56.306;43.984;2022-10-01T10:55:24;31.90;;;18.73;;
74634;SDS011;63140;56.306;43.984;2022-10-01T10:57:53;28.90;;;15.97;;
74634;SDS011;63140;56.306;43.984;2022-10-01T11:00:20;21.73;;;12.68;;
74634;SDS011;63140;56.306;43.984;2022-10-01T11:02:55;24.95;;;13.70;;
74634;SDS011;63140;56.306;43.984;2022-10-01T11:05:24;20.88;;;11.75;;
74634;SDS011;63140;56.306;43.984;2022-10-01T11:07:59;20.58;;;12.43;;
74634;SDS011;63140;56.306;43.984;2022-10-01T11:24:13;20.40;;;13.32;;
74634;SDS011;63140;56.306;43.984;2022-10-01T11:27:04;21.23;;;12.83;;
74634;SDS011;63140;56.306;43.984;2022-10-01T11:35:13;23.17;;;12.88;;
74634;SDS011;63140;56.306;43.984;2022-10-01T11:40:37;25.33;;;14.32;;
74634;SDS011;63140;56.306;43.984;2022-10-01T11:43:19;26.83;;;14.77;;
74634;SDS011;63140;56.306;43.984;2022-10-01T11:45:53;27.10;;;13.20;;
74634;SDS011;63140;56.306;43.984;2022-10-01T11:48:30;24.40;;;14.20;;
74634;SDS011;63140;56.306;43.984;2022-10-01T11:51:21;26.60;;;13.45;;
74634;SDS011;63140;56.306;43.984;2022-10-01T11:53:58;29.00;;;14.95;;
74634;SDS011;63140;56.306;43.984;2022-10-01T11:56:30;28.77;;;15.55;;
74634;SDS011;63140;56.306;43.984;2022-10-01T11:59:21;28.58;;;14.25;;
74634;SDS011;63140;56.306;43.984;2022-10-01T12:12:38;31.67;;;19.10;;
74634;SDS011;63140;56.306;43.984;2022-10-01T12:15:22;33.08;;;20.70;;
74634;SDS011;63140;56.306;43.984;2022-10-01T12:17:56;34.60;;;20.48;;
74634;SDS011;63140;56.306;43.984;2022-10-01T12:20:31;32.78;;;20.52;;
74634;SDS011;63140;56.306;43.984;2022-10-01T12:23:04;32.25;;;20.10;;
74634;SDS011;63140;56.306;43.984;2022-10-01T12:28:31;31.73;;;19.40;;
74634;SDS011;63140;56.306;43.984;2022-10-01T12:31:13;30.23;;;17.77;;
74634;SDS011;63140;56.306;43.984;2022-10-01T12:34:01;28.85;;;17.67;;
74634;SDS011;63140;56.306;43.984;2022-10-01T12:36:58;26.50;;;16.00;;
74634;SDS011;63140;56.306;43.984;2022-10-01T12:53:38;25.27;;;15.60;;
74634;SDS011;63140;56.306;43.984;2022-10-01T12:56:31;25.98;;;16.27;;
74634;SDS011;63140;56.306;43.984;2022-10-01T13:09:27;24.48;;;17.23;;
74634;SDS011;63140;56.306;43.984;2022-10-01T13:12:14;25.05;;;15.63;;
74634;SDS011;63140;56.306;43.984;2022-10-01T13:14:42;22.80;;;16.17;;
74634;SDS011;63140;56.306;43.984;2022-10-01T13:17:12;25.10;;;15.18;;
74634;SDS011;63140;56.306;43.984;2022-10-01T13:20:09;24.10;;;16.07;;
74634;SDS011;63140;56.306;43.984;2022-10-01T13:30:59;20.55;;;13.70;;
74634;SDS011;63140;56.306;43.984;2022-10-01T13:33:34;22.70;;;14.63;;
74634;SDS011;63140;56.306;43.984;2022-10-01T13:36:01;20.17;;;12.77;;
74634;SDS011;63140;56.306;43.984;2022-10-01T13:38:39;20.00;;;11.53;;
74634;SDS011;63140;56.306;43.984;2022-10-01T13:46:34;19.27;;;12.27;;
74634;SDS011;63140;56.306;43.984;2022-10-01T13:49:18;15.85;;;10.15;;
74634;SDS011;63140;56.306;43.984;2022-10-01T13:51:49;18.33;;;11.43;;
74634;SDS011;63140;56.306;43.984;2022-10-01T13:54:24;16.07;;;10.53;;
74634;SDS011;63140;56.306;43.984;2022-10-01T13:57:19;12.87;;;8.63;;
74634;SDS011;63140;56.306;43.984;2022-10-01T13:59:58;13.85;;;8.75;;
74634;SDS011;63140;56.306;43.984;2022-10-01T14:02:35;16.23;;;10.07;;
74634;SDS011;63140;56.306;43.984;2022-10-01T14:05:23;14.07;;;9.73;;
74634;SDS011;63140;56.306;43.984;2022-10-01T14:07:57;14.80;;;9.43;;
74634;SDS011;63140;56.306;43.984;2022-10-01T14:10:57;15.10;;;9.50;;
74634;SDS011;63140;56.306;43.984;2022-10-01T14:13:46;14.70;;;9.30;;
74634;SDS011;63140;56.306;43.984;2022-10-01T14:16:41;14.80;;;9.57;;
74634;SDS011;63140;56.306;43.984;2022-10-01T14:19:16;15.25;;;9.57;;
74634;SDS011;63140;56.306;43.984;2022-10-01T14:30:10;21.75;;;13.52;;
74634;SDS011;63140;56.306;43.984;2022-10-01T14:32:50;22.53;;;13.97;;
74634;SDS011;63140;56.306;43.984;2022-10-01T14:35:34;17.33;;;11.02;;
74634;SDS011;63140;56.306;43.984;2022-10-01T14:38:19;13.45;;;9.60;;
74634;SDS011;63140;56.306;43.984;2022-10-01T14:40:47;15.27;;;9.15;;
74634;SDS011;63140;56.306;43.984;2022-10-01T14:46:03;13.85;;;8.70;;
74634;SDS011;63140;56.306;43.984;2022-10-01T14:48:32;14.47;;;8.33;;
74634;SDS011;63140;56.306;43.984;2022-10-01T14:51:00;14.43;;;8.95;;
74634;SDS011;63140;56.306;43.984;2022-10-01T14:53:28;14.32;;;9.32;;
74634;SDS011;63140;56.306;43.984;2022-10-01T14:55:58;14.85;;;8.77;;
74634;SDS011;63140;56.306;43.984;2022-10-01T14:58:44;14.48;;;9.98;;
74634;SDS011;63140;56.306;43.984;2022-10-01T15:01:20;18.13;;;10.68;;
74634;SDS011;63140;56.306;43.984;2022-10-01T15:03:49;15.93;;;10.20;;
74634;SDS011;63140;56.306;43.984;2022-10-01T15:06:20;17.23;;;10.77;;
74634;SDS011;63140;56.306;43.984;2022-10-01T15:08:51;14.90;;;9.85;;
74634;SDS011;63140;56.306;43.984;2022-10-01T15:13:50;16.75;;;11.18;;
74634;SDS011;63140;56.306;43.984;2022-10-01T15:16:18;18.33;;;10.25;;
74634;SDS011;63140;56.306;43.984;2022-10-01T15:18:47;18.13;;;11.32;;
74634;SDS011;63140;56.306;43.984;2022-10-01T15:21:25;18.38;;;11.57;;
74634;SDS011;63140;56.306;43.984;2022-10-01T15:23:57;19.53;;;11.47;;
74634;SDS011;63140;56.306;43.984;2022-10-01T15:26:24;21.27;;;12.27;;
74634;SDS011;63140;56.306;43.984;2022-10-01T15:31:28;20.63;;;13.23;;
74634;SDS011;63140;56.306;43.984;2022-10-01T15:33:54;24.95;;;15.45;;
74634;SDS011;63140;56.306;43.984;2022-10-01T15:36:20;30.60;;;17.15;;
74634;SDS011;63140;56.306;43.984;2022-10-01T15:38:46;31.75;;;19.77;;
74634;SDS011;63140;56.306;43.984;2022-10-01T15:41:22;31.30;;;18.90;;
74634;SDS011;63140;56.306;43.984;2022-10-01T15:43:51;26.67;;;16.60;;
74634;SDS011;63140;56.306;43.984;2022-10-01T15:46:18;25.67;;;15.33;;
74634;SDS011;63140;56.306;43.984;2022-10-01T15:48:47;25.45;;;15.18;;
74634;SDS011;63140;56.306;43.984;2022-10-01T15:54:46;21.40;;;12.40;;
74634;SDS011;63140;56.306;43.984;2022-10-01T15:57:22;24.08;;;12.95;;
74634;SDS011;63140;56.306;43.984;2022-10-01T15:59:50;20.52;;;12.00;;
74634;SDS011;63140;56.306;43.984;2022-10-01T16:02:20;22.27;;;12.93;;
74634;SDS011;63140;56.306;43.984;2022-10-01T16:04:49;21.85;;;12.45;;
74634;SDS011;63140;56.306;43.984;2022-10-01T16:07:24;20.45;;;12.48;;
74634;SDS011;63140;56.306;43.984;2022-10-01T16:09:57;20.77;;;12.80;;
74634;SDS011;63140;56.306;43.984;2022-10-01T16:12:27;22.08;;;11.90;;
74634;SDS011;63140;56.306;43.984;2022-10-01T16:15:00;20.50;;;11.50;;
74634;SDS011;63140;56.306;43.984;2022-10-01T16:17:33;24.63;;;11.97;;
74634;SDS011;63140;56.306;43.984;2022-10-01T16:23:24;19.33;;;10.45;;
74634;SDS011;63140;56.306;43.984;2022-10-01T16:26:01;25.30;;;11.20;;
74634;SDS011;63140;56.306;43.984;2022-10-01T16:28:32;23.10;;;13.23;;
74634;SDS011;63140;56.306;43.984;2022-10-01T16:30:59;24.48;;;11.70;;
74634;SDS011;63140;56.306;43.984;2022-10-01T16:33:28;23.40;;;12.38;;
74634;SDS011;63140;56.306;43.984;2022-10-01T16:36:05;22.27;;;11.77;;
74634;SDS011;63140;56.306;43.984;2022-10-01T16:38:33;24.55;;;12.32;;
74634;SDS011;63140;56.306;43.984;2022-10-01T16:40:59;27.83;;;14.35;;
74634;SDS011;63140;56.306;43.984;2022-10-01T16:43:26;24.90;;;13.52;;
74634;SDS011;63140;56.306;43.984;2022-10-01T16:45:52;25.47;;;13.77;;
74634;SDS011;63140;56.306;43.984;2022-10-01T16:48:19;23.13;;;12.27;;
74634;SDS011;63140;56.306;43.984;2022-10-01T16:50:48;26.50;;;13.73;;
74634;SDS011;63140;56.306;43.984;2022-10-01T16:53:18;26.35;;;13.50;;